sensor_id;sensor_type;location;lat;lon;timestamp;pressure;altitude;pressure_sealevel;temperature;humidity
42601;BME280;28229;48.856;9.088;2023-03-01T00:00:15;98716.66;;;-2.80;78.61
42601;BME280;28229;48.856;9.088;2023-03-01T00:02:41;98727.44;;;-2.86;78.92
42601;BME280;28229;48.856;9.088;2023-03-01T00:05:08;98724.28;;;-2.78;78.46
42601;BME280;28229;48.856;9.088;2023-03-01T00:07:34;98722.66;;;-2.79;78.36
42601;BME280;28229;48.856;9.088;2023-03-01T00:10:00;98719.59;;;-2.84;78.33
42601;BME280;28229;48.856;9.088;2023-03-01T00:12:26;98722.16;;;-2.96;78.53
42601;BME280;28229;48.856;9.088;2023-03-01T00:14:53;98723.16;;;-2.98;78.85
42601;BME280;28229;48.856;9.088;2023-03-01T00:17:19;98720.59;;;-2.98;78.98
42601;BME280;28229;48.856;9.088;2023-03-01T00:19:45;98724.56;;;-2.94;79.20
42601;BME280;28229;48.856;9.088;2023-03-01T00:22:11;98721.75;;;-3.02;79.31
42601;BME280;28229;48.856;9.088;2023-03-01T00:24:38;98721.75;;;-3.02;79.29
42601;BME280;28229;48.856;9.088;2023-03-01T00:27:11;98731.78;;;-3.11;79.61
42601;BME280;28229;48.856;9.088;2023-03-01T00:29:38;98726.72;;;-3.12;79.67
42601;BME280;28229;48.856;9.088;2023-03-01T00:32:04;98724.50;;;-3.17;79.54
42601;BME280;28229;48.856;9.088;2023-03-01T00:34:30;98726.59;;;-3.22;79.79
42601;BME280;28229;48.856;9.088;2023-03-01T00:36:56;98726.81;;;-3.25;80.28
42601;BME280;28229;48.856;9.088;2023-03-01T00:39:31;98721.66;;;-3.25;80.40
42601;BME280;28229;48.856;9.088;2023-03-01T00:41:59;98725.78;;;-3.22;80.33
42601;BME280;28229;48.856;9.088;2023-03-01T00:44:25;98724.56;;;-3.30;80.44
42601;BME280;28229;48.856;9.088;2023-03-01T00:46:51;98725.59;;;-3.32;80.16
42601;BME280;28229;48.856;9.088;2023-03-01T00:49:17;98725.81;;;-3.35;80.09
42601;BME280;28229;48.856;9.088;2023-03-01T00:51:44;98729.34;;;-3.36;79.55
42601;BME280;28229;48.856;9.088;2023-03-01T00:54:10;98720.72;;;-3.48;79.54
42601;BME280;28229;48.856;9.088;2023-03-01T00:56:36;98728.53;;;-3.50;80.86
42601;BME280;28229;48.856;9.088;2023-03-01T00:59:03;98725.47;;;-3.55;81.02
42601;BME280;28229;48.856;9.088;2023-03-01T01:01:30;98723.75;;;-3.54;81.48
42601;BME280;28229;48.856;9.088;2023-03-01T01:04:02;98726.63;;;-3.59;81.26
42601;BME280;28229;48.856;9.088;2023-03-01T01:06:43;98723.66;;;-3.66;81.28
42601;BME280;28229;48.856;9.088;2023-03-01T01:09:13;98723.44;;;-3.63;81.25
42601;BME280;28229;48.856;9.088;2023-03-01T01:11:47;98716.88;;;-3.67;81.34
42601;BME280;28229;48.856;9.088;2023-03-01T01:14:14;98713.72;;;-3.70;81.46
42601;BME280;28229;48.856;9.088;2023-03-01T01:16:41;98714.13;;;-3.76;81.46
42601;BME280;28229;48.856;9.088;2023-03-01T01:19:07;98714.06;;;-3.88;82.22
42601;BME280;28229;48.856;9.088;2023-03-01T01:21:33;98711.38;;;-3.86;82.87
42601;BME280;28229;48.856;9.088;2023-03-01T01:23:59;98710.34;;;-3.84;82.79
42601;BME280;28229;48.856;9.088;2023-03-01T01:26:29;98708.09;;;-3.88;82.63
42601;BME280;28229;48.856;9.088;2023-03-01T01:28:55;98705.28;;;-3.85;82.72
42601;BME280;28229;48.856;9.088;2023-03-01T01:31:22;98703.56;;;-3.85;82.65
42601;BME280;28229;48.856;9.088;2023-03-01T01:33:50;98700.75;;;-3.82;82.75
42601;BME280;28229;48.856;9.088;2023-03-01T01:36:16;98698.78;;;-3.78;83.06
42601;BME280;28229;48.856;9.088;2023-03-01T01:38:44;98689.25;;;-3.89;83.87
42601;BME280;28229;48.856;9.088;2023-03-01T01:41:11;98692.13;;;-3.80;83.68
42601;BME280;28229;48.856;9.088;2023-03-01T01:43:41;98689.25;;;-3.76;83.40
42601;BME280;28229;48.856;9.088;2023-03-01T01:48:56;98680.50;;;-3.73;83.42
42601;BME280;28229;48.856;9.088;2023-03-01T01:51:29;98682.16;;;-3.72;83.39
42601;BME280;28229;48.856;9.088;2023-03-01T01:54:11;98685.56;;;-3.85;83.66
42601;BME280;28229;48.856;9.088;2023-03-01T01:56:43;98674.59;;;-3.87;83.41
42601;BME280;28229;48.856;9.088;2023-03-01T01:59:11;98669.44;;;-3.87;83.32
42601;BME280;28229;48.856;9.088;2023-03-01T02:01:37;98674.94;;;-3.80;83.40
42601;BME280;28229;48.856;9.088;2023-03-01T02:04:04;98674.78;;;-3.90;83.98
42601;BME280;28229;48.856;9.088;2023-03-01T02:06:37;98672.31;;;-3.91;84.43
42601;BME280;28229;48.856;9.088;2023-03-01T02:09:11;98670.56;;;-3.91;84.59
42601;BME280;28229;48.856;9.088;2023-03-01T02:11:38;98668.22;;;-3.94;84.62
42601;BME280;28229;48.856;9.088;2023-03-01T02:14:05;98667.94;;;-4.02;84.67
42601;BME280;28229;48.856;9.088;2023-03-01T02:16:31;98667.00;;;-4.01;84.70
42601;BME280;28229;48.856;9.088;2023-03-01T02:18:58;98649.94;;;-4.02;85.03
42601;BME280;28229;48.856;9.088;2023-03-01T02:22:03;98653.41;;;-4.03;84.84
42601;BME280;28229;48.856;9.088;2023-03-01T02:24:49;98644.59;;;-3.99;84.50
42601;BME280;28229;48.856;9.088;2023-03-01T02:27:26;98641.38;;;-3.90;84.13
42601;BME280;28229;48.856;9.088;2023-03-01T02:29:54;98646.50;;;-3.90;84.06
42601;BME280;28229;48.856;9.088;2023-03-01T02:32:20;98627.81;;;-3.92;84.14
42601;BME280;28229;48.856;9.088;2023-03-01T02:34:55;98632.00;;;-3.91;84.25
42601;BME280;28229;48.856;9.088;2023-03-01T02:37:28;98630.28;;;-3.90;85.01
42601;BME280;28229;48.856;9.088;2023-03-01T02:39:58;98631.59;;;-3.85;85.10
42601;BME280;28229;48.856;9.088;2023-03-01T02:42:49;98633.00;;;-3.80;85.36
42601;BME280;28229;48.856;9.088;2023-03-01T02:45:17;98627.41;;;-3.74;85.25
42601;BME280;28229;48.856;9.088;2023-03-01T02:47:44;98622.91;;;-3.71;85.11
42601;BME280;28229;48.856;9.088;2023-03-01T02:50:33;98621.84;;;-3.68;85.38
42601;BME280;28229;48.856;9.088;2023-03-01T02:53:21;98610.84;;;-3.70;85.34
42601;BME280;28229;48.856;9.088;2023-03-01T02:55:50;98615.31;;;-3.61;85.58
42601;BME280;28229;48.856;9.088;2023-03-01T02:58:16;98614.41;;;-3.60;85.52
42601;BME280;28229;48.856;9.088;2023-03-01T03:00:43;98611.09;;;-3.62;85.51
42601;BME280;28229;48.856;9.088;2023-03-01T03:03:14;98618.72;;;-3.60;85.63
42601;BME280;28229;48.856;9.088;2023-03-01T03:05:42;98610.06;;;-3.59;85.80
42601;BME280;28229;48.856;9.088;2023-03-01T03:08:08;98604.72;;;-3.56;86.19
42601;BME280;28229;48.856;9.088;2023-03-01T03:10:38;98608.81;;;-3.54;86.49
42601;BME280;28229;48.856;9.088;2023-03-01T03:13:08;98605.06;;;-3.50;85.84
42601;BME280;28229;48.856;9.088;2023-03-01T03:15:37;98607.44;;;-3.47;85.98
42601;BME280;28229;48.856;9.088;2023-03-01T03:18:06;98598.78;;;-3.46;86.36
42601;BME280;28229;48.856;9.088;2023-03-01T03:20:33;98595.06;;;-3.41;86.23
42601;BME280;28229;48.856;9.088;2023-03-01T03:22:59;98597.63;;;-3.41;86.67
42601;BME280;28229;48.856;9.088;2023-03-01T03:25:27;98590.19;;;-3.33;87.03
42601;BME280;28229;48.856;9.088;2023-03-01T03:27:55;98589.81;;;-3.40;87.02
42601;BME280;28229;48.856;9.088;2023-03-01T03:30:29;98584.56;;;-3.27;86.48
42601;BME280;28229;48.856;9.088;2023-03-01T03:32:56;98581.78;;;-3.24;86.26
42601;BME280;28229;48.856;9.088;2023-03-01T03:35:33;98583.50;;;-3.25;86.43
42601;BME280;28229;48.856;9.088;2023-03-01T03:38:03;98588.44;;;-3.21;86.35
42601;BME280;28229;48.856;9.088;2023-03-01T03:40:39;98585.88;;;-3.21;86.02
42601;BME280;28229;48.856;9.088;2023-03-01T03:43:08;98582.69;;;-3.25;85.48
42601;BME280;28229;48.856;9.088;2023-03-01T03:45:36;98584.09;;;-3.21;86.07
42601;BME280;28229;48.856;9.088;2023-03-01T03:48:04;98585.53;;;-3.17;86.09
42601;BME280;28229;48.856;9.088;2023-03-01T03:50:31;98589.84;;;-3.17;85.87
42601;BME280;28229;48.856;9.088;2023-03-01T03:53:00;98582.97;;;-3.17;86.02
42601;BME280;28229;48.856;9.088;2023-03-01T03:55:27;98581.56;;;-3.10;85.17
42601;BME280;28229;48.856;9.088;2023-03-01T03:58:00;98579.59;;;-3.06;85.20
42601;BME280;28229;48.856;9.088;2023-03-01T04:00:34;98573.16;;;-3.00;85.29
42601;BME280;28229;48.856;9.088;2023-03-01T04:03:01;98571.97;;;-2.96;85.30
42601;BME280;28229;48.856;9.088;2023-03-01T04:05:28;98570.84;;;-2.92;85.16
42601;BME280;28229;48.856;9.088;2023-03-01T04:07:55;98566.38;;;-2.90;85.50
42601;BME280;28229;48.856;9.088;2023-03-01T04:10:33;98563.09;;;-2.92;85.71
42601;BME280;28229;48.856;9.088;2023-03-01T04:13:00;98555.81;;;-2.87;84.70
42601;BME280;28229;48.856;9.088;2023-03-01T04:15:27;98562.88;;;-2.78;84.67
42601;BME280;28229;48.856;9.088;2023-03-01T04:17:54;98556.31;;;-2.71;84.13
42601;BME280;28229;48.856;9.088;2023-03-01T04:20:23;98556.06;;;-2.68;84.63
42601;BME280;28229;48.856;9.088;2023-03-01T04:22:58;98559.59;;;-2.69;84.62
42601;BME280;28229;48.856;9.088;2023-03-01T04:25:25;98555.84;;;-2.64;84.32
42601;BME280;28229;48.856;9.088;2023-03-01T04:27:52;98556.06;;;-2.56;84.14
42601;BME280;28229;48.856;9.088;2023-03-01T04:30:18;98554.91;;;-2.52;83.32
42601;BME280;28229;48.856;9.088;2023-03-01T04:32:44;98548.81;;;-2.51;83.72
42601;BME280;28229;48.856;9.088;2023-03-01T04:35:10;98551.41;;;-2.51;83.58
42601;BME280;28229;48.856;9.088;2023-03-01T04:37:36;98546.69;;;-2.57;83.91
42601;BME280;28229;48.856;9.088;2023-03-01T04:40:03;98553.00;;;-2.50;83.25
42601;BME280;28229;48.856;9.088;2023-03-01T04:42:42;98556.63;;;-2.41;82.99
42601;BME280;28229;48.856;9.088;2023-03-01T04:45:08;98554.06;;;-2.41;82.38
42601;BME280;28229;48.856;9.088;2023-03-01T04:47:43;98562.16;;;-2.46;82.41
42601;BME280;28229;48.856;9.088;2023-03-01T04:50:17;98557.00;;;-2.46;83.04
42601;BME280;28229;48.856;9.088;2023-03-01T04:52:43;98558.16;;;-2.50;83.15
42601;BME280;28229;48.856;9.088;2023-03-01T04:55:10;98562.16;;;-2.57;83.33
42601;BME280;28229;48.856;9.088;2023-03-01T04:57:36;98561.94;;;-2.54;83.35
42601;BME280;28229;48.856;9.088;2023-03-01T05:00:04;98554.22;;;-2.65;83.94
42601;BME280;28229;48.856;9.088;2023-03-01T05:02:57;98555.38;;;-2.58;83.75
42601;BME280;28229;48.856;9.088;2023-03-01T05:05:30;98553.50;;;-2.56;83.73
42601;BME280;28229;48.856;9.088;2023-03-01T05:07:59;98561.13;;;-2.55;83.78
42601;BME280;28229;48.856;9.088;2023-03-01T05:10:28;98560.84;;;-2.52;83.69
42601;BME280;28229;48.856;9.088;2023-03-01T05:12:58;98556.06;;;-2.56;84.01
42601;BME280;28229;48.856;9.088;2023-03-01T05:15:26;98554.91;;;-2.52;83.83
42601;BME280;28229;48.856;9.088;2023-03-01T05:17:59;98553.72;;;-2.48;83.81
42601;BME280;28229;48.856;9.088;2023-03-01T05:20:27;98546.69;;;-2.57;84.12
42601;BME280;28229;48.856;9.088;2023-03-01T05:22:59;98548.66;;;-2.50;84.45
42601;BME280;28229;48.856;9.088;2023-03-01T05:25:26;98548.09;;;-2.53;84.55
42601;BME280;28229;48.856;9.088;2023-03-01T05:27:52;98548.44;;;-2.46;84.78
42601;BME280;28229;48.856;9.088;2023-03-01T05:30:18;98548.31;;;-2.45;85.29
42601;BME280;28229;48.856;9.088;2023-03-01T05:32:49;98547.41;;;-2.55;85.36
42601;BME280;28229;48.856;9.088;2023-03-01T05:35:17;98544.59;;;-2.52;85.45
42601;BME280;28229;48.856;9.088;2023-03-01T05:37:46;98552.28;;;-2.41;85.57
42601;BME280;28229;48.856;9.088;2023-03-01T05:40:16;98554.19;;;-2.43;85.24
42601;BME280;28229;48.856;9.088;2023-03-01T05:42:50;98561.44;;;-2.48;85.67
42601;BME280;28229;48.856;9.088;2023-03-01T05:45:18;98551.84;;;-2.46;85.74
42601;BME280;28229;48.856;9.088;2023-03-01T05:47:45;98556.78;;;-2.54;85.57
42601;BME280;28229;48.856;9.088;2023-03-01T05:50:33;98556.88;;;-2.44;85.57
42601;BME280;28229;48.856;9.088;2023-03-01T05:53:06;98547.88;;;-2.39;85.64
42601;BME280;28229;48.856;9.088;2023-03-01T05:55:34;98551.13;;;-2.37;84.99
42601;BME280;28229;48.856;9.088;2023-03-01T05:58:05;98548.66;;;-2.50;85.15
42601;BME280;28229;48.856;9.088;2023-03-01T06:00:32;98541.56;;;-2.46;85.42
42601;BME280;28229;48.856;9.088;2023-03-01T06:02:59;98541.66;;;-2.47;85.45
42601;BME280;28229;48.856;9.088;2023-03-01T06:05:26;98545.97;;;-2.48;85.18
42601;BME280;28229;48.856;9.088;2023-03-01T06:07:53;98544.72;;;-2.42;85.17
42601;BME280;28229;48.856;9.088;2023-03-01T06:10:21;98542.50;;;-2.58;85.24
42601;BME280;28229;48.856;9.088;2023-03-01T06:13:01;98541.09;;;-1.75;100.00
42601;BME280;28229;48.856;9.088;2023-03-01T06:15:28;98537.97;;;-1.16;100.00
42601;BME280;28229;48.856;9.088;2023-03-01T06:17:55;98535.81;;;-0.80;90.78
42601;BME280;28229;48.856;9.088;2023-03-01T06:20:24;98537.00;;;-0.53;85.28
42601;BME280;28229;48.856;9.088;2023-03-01T06:22:51;98544.72;;;-0.03;81.31
42601;BME280;28229;48.856;9.088;2023-03-01T06:25:20;98543.25;;;0.34;77.86
42601;BME280;28229;48.856;9.088;2023-03-01T06:27:47;98543.03;;;-0.43;74.99
42601;BME280;28229;48.856;9.088;2023-03-01T06:30:16;98536.22;;;-1.05;76.94
42601;BME280;28229;48.856;9.088;2023-03-01T06:32:43;98532.16;;;-1.29;78.75
42601;BME280;28229;48.856;9.088;2023-03-01T06:35:11;98529.47;;;-1.48;79.61
42601;BME280;28229;48.856;9.088;2023-03-01T06:37:38;98537.63;;;-1.85;80.66
42601;BME280;28229;48.856;9.088;2023-03-01T06:40:08;98536.97;;;-1.99;81.77
42601;BME280;28229;48.856;9.088;2023-03-01T06:42:38;98535.03;;;-2.18;82.97
42601;BME280;28229;48.856;9.088;2023-03-01T06:45:07;98542.09;;;-2.31;83.75
42601;BME280;28229;48.856;9.088;2023-03-01T06:47:33;98523.75;;;-2.49;84.53
42601;BME280;28229;48.856;9.088;2023-03-01T06:50:00;98528.66;;;-2.46;84.48
42601;BME280;28229;48.856;9.088;2023-03-01T06:52:26;98527.75;;;-2.56;84.48
42601;BME280;28229;48.856;9.088;2023-03-01T06:54:53;98542.84;;;-2.63;85.04
42601;BME280;28229;48.856;9.088;2023-03-01T06:57:19;98541.53;;;-2.57;84.71
42601;BME280;28229;48.856;9.088;2023-03-01T06:59:46;98539.81;;;-2.68;84.84
42601;BME280;28229;48.856;9.088;2023-03-01T07:02:13;98540.84;;;-2.59;84.88
42601;BME280;28229;48.856;9.088;2023-03-01T07:04:41;98538.28;;;-2.59;85.27
42601;BME280;28229;48.856;9.088;2023-03-01T07:07:08;98540.38;;;-2.64;85.32
42601;BME280;28229;48.856;9.088;2023-03-01T07:09:34;98538.03;;;-2.56;85.44
42601;BME280;28229;48.856;9.088;2023-03-01T07:12:01;98535.78;;;-2.50;85.40
42601;BME280;28229;48.856;9.088;2023-03-01T07:14:27;98531.09;;;-2.44;85.16
42601;BME280;28229;48.856;9.088;2023-03-01T07:16:54;98531.34;;;-2.36;84.57
42601;BME280;28229;48.856;9.088;2023-03-01T07:19:21;98528.84;;;-2.26;84.80
42601;BME280;28229;48.856;9.088;2023-03-01T07:21:47;98524.59;;;-2.16;84.52
42601;BME280;28229;48.856;9.088;2023-03-01T07:24:14;98528.91;;;-2.05;84.00
42601;BME280;28229;48.856;9.088;2023-03-01T07:26:40;98522.81;;;-2.04;84.08
42601;BME280;28229;48.856;9.088;2023-03-01T07:29:07;98520.06;;;-1.92;83.54
42601;BME280;28229;48.856;9.088;2023-03-01T07:31:35;98525.16;;;-1.80;83.34
42601;BME280;28229;48.856;9.088;2023-03-01T07:34:02;98519.00;;;-1.68;82.74
42601;BME280;28229;48.856;9.088;2023-03-01T07:36:28;98513.09;;;-1.59;82.82
42601;BME280;28229;48.856;9.088;2023-03-01T07:38:55;98513.38;;;-1.62;82.51
42601;BME280;28229;48.856;9.088;2023-03-01T07:41:21;98506.31;;;-1.39;81.92
42601;BME280;28229;48.856;9.088;2023-03-01T07:43:49;98499.19;;;-1.25;81.61
42601;BME280;28229;48.856;9.088;2023-03-01T07:46:16;98500.19;;;-1.17;80.65
42601;BME280;28229;48.856;9.088;2023-03-01T07:48:45;98502.94;;;-1.08;80.24
42601;BME280;28229;48.856;9.088;2023-03-01T07:51:25;98502.84;;;-0.97;79.58
42601;BME280;28229;48.856;9.088;2023-03-01T07:53:57;98505.72;;;-0.90;77.44
42601;BME280;28229;48.856;9.088;2023-03-01T07:56:37;98506.16;;;-0.85;77.87
42601;BME280;28229;48.856;9.088;2023-03-01T07:59:08;98504.59;;;-0.67;76.41
42601;BME280;28229;48.856;9.088;2023-03-01T08:01:38;98500.59;;;-0.30;76.81
42601;BME280;28229;48.856;9.088;2023-03-01T08:04:09;98491.63;;;-0.26;74.53
42601;BME280;28229;48.856;9.088;2023-03-01T08:06:36;98486.72;;;-0.20;72.95
42601;BME280;28229;48.856;9.088;2023-03-01T08:09:03;98489.56;;;-0.13;73.53
42601;BME280;28229;48.856;9.088;2023-03-01T08:11:29;98487.53;;;-0.09;73.74
42601;BME280;28229;48.856;9.088;2023-03-01T08:13:55;98485.91;;;-0.01;73.47
42601;BME280;28229;48.856;9.088;2023-03-01T08:16:22;98489.44;;;0.08;72.16
42601;BME280;28229;48.856;9.088;2023-03-01T08:18:49;98486.06;;;0.08;71.61
42601;BME280;28229;48.856;9.088;2023-03-01T08:21:16;98493.25;;;0.14;71.40
42601;BME280;28229;48.856;9.088;2023-03-01T08:23:43;98491.06;;;0.19;71.26
42601;BME280;28229;48.856;9.088;2023-03-01T08:26:15;98483.97;;;0.50;76.19
42601;BME280;28229;48.856;9.088;2023-03-01T08:28:43;98485.38;;;0.82;71.22
42601;BME280;28229;48.856;9.088;2023-03-01T08:31:24;98481.41;;;1.16;71.74
42601;BME280;28229;48.856;9.088;2023-03-01T08:34:03;98483.09;;;1.35;68.97
42601;BME280;28229;48.856;9.088;2023-03-01T08:36:32;98480.81;;;1.49;67.76
42601;BME280;28229;48.856;9.088;2023-03-01T08:38:59;98492.34;;;1.65;66.41
42601;BME280;28229;48.856;9.088;2023-03-01T08:41:26;98483.63;;;1.84;66.98
42601;BME280;28229;48.856;9.088;2023-03-01T08:43:52;98477.06;;;1.98;64.89
42601;BME280;28229;48.856;9.088;2023-03-01T08:46:35;98477.97;;;2.06;64.73
42601;BME280;28229;48.856;9.088;2023-03-01T08:49:28;98471.81;;;2.07;62.94
42601;BME280;28229;48.856;9.088;2023-03-01T08:51:55;98474.19;;;2.01;62.71
42601;BME280;28229;48.856;9.088;2023-03-01T08:54:25;98472.50;;;1.92;63.21
42601;BME280;28229;48.856;9.088;2023-03-01T08:56:51;98472.59;;;2.00;62.77
42601;BME280;28229;48.856;9.088;2023-03-01T08:59:17;98469.09;;;2.09;62.69
42601;BME280;28229;48.856;9.088;2023-03-01T09:01:44;98461.66;;;2.14;62.02
42601;BME280;28229;48.856;9.088;2023-03-01T09:04:11;98456.16;;;2.17;62.02
42601;BME280;28229;48.856;9.088;2023-03-01T09:06:41;98462.84;;;2.46;60.64
42601;BME280;28229;48.856;9.088;2023-03-01T09:09:13;98452.34;;;2.29;60.54
42601;BME280;28229;48.856;9.088;2023-03-01T09:11:41;98453.09;;;2.40;61.04
42601;BME280;28229;48.856;9.088;2023-03-01T09:14:07;98448.06;;;2.73;60.34
42601;BME280;28229;48.856;9.088;2023-03-01T09:16:34;98448.19;;;2.89;59.92
42601;BME280;28229;48.856;9.088;2023-03-01T09:19:07;98437.53;;;3.09;59.01
42601;BME280;28229;48.856;9.088;2023-03-01T09:21:34;98437.81;;;2.97;58.49
42601;BME280;28229;48.856;9.088;2023-03-01T09:24:02;98440.59;;;3.04;59.37
42601;BME280;28229;48.856;9.088;2023-03-01T09:26:28;98433.72;;;3.37;60.42
42601;BME280;28229;48.856;9.088;2023-03-01T09:28:55;98430.38;;;3.70;60.00
42601;BME280;28229;48.856;9.088;2023-03-01T09:31:23;98426.66;;;3.89;57.59
42601;BME280;28229;48.856;9.088;2023-03-01T09:33:52;98421.91;;;4.17;59.76
42601;BME280;28229;48.856;9.088;2023-03-01T09:36:22;98426.63;;;4.46;55.18
42601;BME280;28229;48.856;9.088;2023-03-01T09:38:48;98423.03;;;4.39;53.94
42601;BME280;28229;48.856;9.088;2023-03-01T09:41:20;98418.19;;;3.95;54.35
42601;BME280;28229;48.856;9.088;2023-03-01T09:43:52;98426.00;;;3.78;55.16
42601;BME280;28229;48.856;9.088;2023-03-01T09:46:23;98422.41;;;4.04;55.19
42601;BME280;28229;48.856;9.088;2023-03-01T09:49:01;98428.28;;;4.14;54.49
42601;BME280;28229;48.856;9.088;2023-03-01T09:51:32;98422.09;;;3.99;54.40
42601;BME280;28229;48.856;9.088;2023-03-01T09:54:02;98427.94;;;4.01;54.60
42601;BME280;28229;48.856;9.088;2023-03-01T09:56:45;98423.38;;;4.19;54.21
42601;BME280;28229;48.856;9.088;2023-03-01T09:59:26;98417.16;;;4.45;54.51
42601;BME280;28229;48.856;9.088;2023-03-01T10:02:21;98413.94;;;4.91;54.07
42601;BME280;28229;48.856;9.088;2023-03-01T10:04:51;98411.78;;;5.03;53.38
42601;BME280;28229;48.856;9.088;2023-03-01T10:09:45;98410.84;;;5.81;50.46
42601;BME280;28229;48.856;9.088;2023-03-01T10:12:25;98404.50;;;5.76;49.67
42601;BME280;28229;48.856;9.088;2023-03-01T10:15:00;98396.19;;;5.49;50.50
42601;BME280;28229;48.856;9.088;2023-03-01T10:17:51;98389.09;;;5.34;50.22
42601;BME280;28229;48.856;9.088;2023-03-01T10:20:42;98383.66;;;5.21;50.57
42601;BME280;28229;48.856;9.088;2023-03-01T10:23:10;98386.09;;;5.23;50.93
42601;BME280;28229;48.856;9.088;2023-03-01T10:25:47;98377.28;;;5.47;50.21
42601;BME280;28229;48.856;9.088;2023-03-01T10:28:18;98384.53;;;5.83;49.15
42601;BME280;28229;48.856;9.088;2023-03-01T10:30:48;98379.56;;;5.73;49.66
42601;BME280;28229;48.856;9.088;2023-03-01T10:33:23;98375.72;;;6.07;49.70
42601;BME280;28229;48.856;9.088;2023-03-01T10:35:50;98366.66;;;6.47;47.75
42601;BME280;28229;48.856;9.088;2023-03-01T10:38:17;98361.59;;;6.61;47.54
42601;BME280;28229;48.856;9.088;2023-03-01T10:43:24;98357.38;;;7.11;46.86
42601;BME280;28229;48.856;9.088;2023-03-01T10:45:51;98355.13;;;6.86;46.48
42601;BME280;28229;48.856;9.088;2023-03-01T10:48:18;98358.69;;;7.00;47.79
42601;BME280;28229;48.856;9.088;2023-03-01T10:50:47;98354.00;;;7.32;48.40
42601;BME280;28229;48.856;9.088;2023-03-01T10:53:38;98351.84;;;7.79;45.49
42601;BME280;28229;48.856;9.088;2023-03-01T10:56:09;98359.81;;;7.71;44.73
42601;BME280;28229;48.856;9.088;2023-03-01T10:58:41;98348.63;;;7.84;45.94
42601;BME280;28229;48.856;9.088;2023-03-01T11:03:42;98340.06;;;8.25;44.83
42601;BME280;28229;48.856;9.088;2023-03-01T11:08:48;98327.63;;;8.75;42.17
42601;BME280;28229;48.856;9.088;2023-03-01T11:16:26;98310.06;;;9.30;41.99
42601;BME280;28229;48.856;9.088;2023-03-01T11:18:57;98307.00;;;9.33;41.61
42601;BME280;28229;48.856;9.088;2023-03-01T11:21:25;98307.44;;;9.30;40.83
42601;BME280;28229;48.856;9.088;2023-03-01T11:23:53;98301.56;;;9.22;41.80
42601;BME280;28229;48.856;9.088;2023-03-01T11:26:19;98301.38;;;9.50;42.04
42601;BME280;28229;48.856;9.088;2023-03-01T11:28:50;98298.16;;;9.55;40.98
42601;BME280;28229;48.856;9.088;2023-03-01T11:31:18;98296.13;;;9.83;40.81
42601;BME280;28229;48.856;9.088;2023-03-01T11:33:53;98289.69;;;9.86;40.17
42601;BME280;28229;48.856;9.088;2023-03-01T11:36:30;98281.19;;;9.77;39.25
42601;BME280;28229;48.856;9.088;2023-03-01T11:39:04;98276.72;;;9.71;40.65
42601;BME280;28229;48.856;9.088;2023-03-01T11:41:34;98271.66;;;10.03;39.60
42601;BME280;28229;48.856;9.088;2023-03-01T11:46:52;98256.09;;;9.75;40.36
42601;BME280;28229;48.856;9.088;2023-03-01T11:49:50;98255.88;;;10.03;39.73
42601;BME280;28229;48.856;9.088;2023-03-01T12:04:26;98237.50;;;9.89;38.90
42601;BME280;28229;48.856;9.088;2023-03-01T12:09:56;98234.72;;;9.64;39.50
42601;BME280;28229;48.856;9.088;2023-03-01T12:15:26;98222.38;;;9.51;40.19
42601;BME280;28229;48.856;9.088;2023-03-01T12:18:13;98213.09;;;9.56;40.10
42601;BME280;28229;48.856;9.088;2023-03-01T12:26:23;98204.59;;;9.67;39.21
42601;BME280;28229;48.856;9.088;2023-03-01T12:29:23;98198.25;;;10.08;39.77
42601;BME280;28229;48.856;9.088;2023-03-01T12:32:14;98193.97;;;10.65;38.29
42601;BME280;28229;48.856;9.088;2023-03-01T12:34:59;98191.16;;;10.60;37.87
42601;BME280;28229;48.856;9.088;2023-03-01T12:43:27;98180.84;;;10.07;38.86
42601;BME280;28229;48.856;9.088;2023-03-01T12:49:05;98179.31;;;9.79;39.33
42601;BME280;28229;48.856;9.088;2023-03-01T12:51:35;98172.47;;;9.51;39.32
42601;BME280;28229;48.856;9.088;2023-03-01T12:54:20;98169.53;;;10.00;39.32
42601;BME280;28229;48.856;9.088;2023-03-01T12:56:49;98158.22;;;10.06;39.65
42601;BME280;28229;48.856;9.088;2023-03-01T12:59:31;98147.31;;;10.47;39.04
42601;BME280;28229;48.856;9.088;2023-03-01T13:02:24;98143.22;;;10.13;38.46
42601;BME280;28229;48.856;9.088;2023-03-01T13:10:48;98131.69;;;9.56;39.63
42601;BME280;28229;48.856;9.088;2023-03-01T13:13:26;98132.41;;;9.89;39.91
42601;BME280;28229;48.856;9.088;2023-03-01T13:15:53;98139.31;;;9.77;40.26
42601;BME280;28229;48.856;9.088;2023-03-01T13:20:51;98130.44;;;9.71;40.07
42601;BME280;28229;48.856;9.088;2023-03-01T13:26:10;98126.97;;;9.84;39.22
42601;BME280;28229;48.856;9.088;2023-03-01T13:33:43;98126.41;;;9.62;41.02
42601;BME280;28229;48.856;9.088;2023-03-01T13:36:11;98120.19;;;9.37;40.22
42601;BME280;28229;48.856;9.088;2023-03-01T13:38:59;98120.78;;;9.39;40.51
42601;BME280;28229;48.856;9.088;2023-03-01T13:46:44;98118.72;;;9.67;39.69
42601;BME280;28229;48.856;9.088;2023-03-01T13:49:16;98114.28;;;9.61;39.54
42601;BME280;28229;48.856;9.088;2023-03-01T13:51:49;98110.41;;;9.77;39.83
42601;BME280;28229;48.856;9.088;2023-03-01T13:54:32;98121.94;;;9.69;40.03
42601;BME280;28229;48.856;9.088;2023-03-01T13:57:00;98121.59;;;9.52;40.28
42601;BME280;28229;48.856;9.088;2023-03-01T13:59:27;98121.22;;;9.09;40.74
42601;BME280;28229;48.856;9.088;2023-03-01T14:01:57;98113.91;;;9.51;40.07
42601;BME280;28229;48.856;9.088;2023-03-01T14:04:32;98115.28;;;9.67;39.83
42601;BME280;28229;48.856;9.088;2023-03-01T14:07:21;98110.28;;;9.52;39.84
42601;BME280;28229;48.856;9.088;2023-03-01T14:09:51;98104.78;;;9.67;40.33
42601;BME280;28229;48.856;9.088;2023-03-01T14:12:43;98102.47;;;9.90;40.27
42601;BME280;28229;48.856;9.088;2023-03-01T14:17:49;98095.91;;;9.55;40.67
42601;BME280;28229;48.856;9.088;2023-03-01T14:20:23;98100.56;;;9.52;40.07
42601;BME280;28229;48.856;9.088;2023-03-01T14:22:54;98098.72;;;9.66;40.76
42601;BME280;28229;48.856;9.088;2023-03-01T14:25:36;98103.00;;;9.47;40.19
42601;BME280;28229;48.856;9.088;2023-03-01T14:28:13;98109.03;;;9.68;41.93
42601;BME280;28229;48.856;9.088;2023-03-01T14:30:43;98109.81;;;9.75;41.83
42601;BME280;28229;48.856;9.088;2023-03-01T14:35:56;98129.59;;;9.84;41.30
42601;BME280;28229;48.856;9.088;2023-03-01T14:41:22;98130.94;;;10.45;39.16
42601;BME280;28229;48.856;9.088;2023-03-01T14:44:05;98130.94;;;10.45;39.09
42601;BME280;28229;48.856;9.088;2023-03-01T14:46:38;98133.88;;;10.17;39.82